sensor_id;sensor_type;location;lat;lon;timestamp;temperature;humidity
25188;DHT22;13141;50.414;8.050;2024-01-30T00:00:40;3.10;99.90
25188;DHT22;13141;50.414;8.050;2024-01-30T00:03:07;3.10;99.90
25188;DHT22;13141;50.414;8.050;2024-01-30T00:05:33;3.10;99.90
25188;DHT22;13141;50.414;8.050;2024-01-30T00:07:59;3.00;99.90
25188;DHT22;13141;50.414;8.050;2024-01-30T00:10:24;2.90;99.90
25188;DHT22;13141;50.414;8.050;2024-01-30T00:12:50;2.90;99.90
25188;DHT22;13141;50.414;8.050;2024-01-30T00:15:16;2.90;99.90
25188;DHT22;13141;50.414;8.050;2024-01-30T00:17:42;2.80;99.90
25188;DHT22;13141;50.414;8.050;2024-01-30T00:20:10;2.90;99.90
25188;DHT22;13141;50.414;8.050;2024-01-30T00:22:35;2.90;99.90
25188;DHT22;13141;50.414;8.050;2024-01-30T00:25:01;2.90;99.90
25188;DHT22;13141;50.414;8.050;2024-01-30T00:27:28;2.90;99.90
25188;DHT22;13141;50.414;8.050;2024-01-30T00:29:54;2.90;99.90
25188;DHT22;13141;50.414;8.050;2024-01-30T00:32:19;2.90;99.90
25188;DHT22;13141;50.414;8.050;2024-01-30T00:34:45;2.90;99.90
25188;DHT22;13141;50.414;8.050;2024-01-30T00:37:12;2.90;99.90
25188;DHT22;13141;50.414;8.050;2024-01-30T00:39:38;2.90;99.90
25188;DHT22;13141;50.414;8.050;2024-01-30T00:42:04;2.70;99.90
25188;DHT22;13141;50.414;8.050;2024-01-30T00:44:29;2.60;99.90
25188;DHT22;13141;50.414;8.050;2024-01-30T00:46:55;2.70;99.90
25188;DHT22;13141;50.414;8.050;2024-01-30T00:49:21;2.70;99.90
25188;DHT22;13141;50.414;8.050;2024-01-30T00:51:46;2.70;99.90
25188;DHT22;13141;50.414;8.050;2024-01-30T00:54:13;2.80;99.90
25188;DHT22;13141;50.414;8.050;2024-01-30T00:56:39;2.80;99.90
25188;DHT22;13141;50.414;8.050;2024-01-30T00:59:05;2.80;99.90
25188;DHT22;13141;50.414;8.050;2024-01-30T01:01:31;2.90;99.90
25188;DHT22;13141;50.414;8.050;2024-01-30T01:03:56;2.90;99.90
25188;DHT22;13141;50.414;8.050;2024-01-30T01:06:22;2.80;99.90
25188;DHT22;13141;50.414;8.050;2024-01-30T01:08:47;2.80;99.90
25188;DHT22;13141;50.414;8.050;2024-01-30T01:11:15;2.70;99.90
25188;DHT22;13141;50.414;8.050;2024-01-30T01:13:40;2.70;99.90
25188;DHT22;13141;50.414;8.050;2024-01-30T01:16:06;2.70;99.90
25188;DHT22;13141;50.414;8.050;2024-01-30T01:18:32;2.70;99.90
25188;DHT22;13141;50.414;8.050;2024-01-30T01:20:57;2.70;99.90
25188;DHT22;13141;50.414;8.050;2024-01-30T01:23:23;2.70;99.90
25188;DHT22;13141;50.414;8.050;2024-01-30T01:25:48;2.60;99.90
25188;DHT22;13141;50.414;8.050;2024-01-30T01:28:16;2.70;99.90
25188;DHT22;13141;50.414;8.050;2024-01-30T01:30:41;2.70;99.90
25188;DHT22;13141;50.414;8.050;2024-01-30T01:33:07;2.60;99.90
25188;DHT22;13141;50.414;8.050;2024-01-30T01:35:33;2.60;99.90
25188;DHT22;13141;50.414;8.050;2024-01-30T01:38:00;2.60;99.90
25188;DHT22;13141;50.414;8.050;2024-01-30T01:40:26;2.60;99.90
25188;DHT22;13141;50.414;8.050;2024-01-30T01:42:53;2.50;99.90
25188;DHT22;13141;50.414;8.050;2024-01-30T01:45:21;2.50;99.90
25188;DHT22;13141;50.414;8.050;2024-01-30T01:47:48;2.40;99.90
25188;DHT22;13141;50.414;8.050;2024-01-30T01:50:16;2.40;99.90
25188;DHT22;13141;50.414;8.050;2024-01-30T01:52:42;2.50;99.90
25188;DHT22;13141;50.414;8.050;2024-01-30T01:55:07;2.50;99.90
25188;DHT22;13141;50.414;8.050;2024-01-30T01:57:33;2.50;99.90
25188;DHT22;13141;50.414;8.050;2024-01-30T01:59:59;2.50;99.90
25188;DHT22;13141;50.414;8.050;2024-01-30T02:02:28;2.50;99.90
25188;DHT22;13141;50.414;8.050;2024-01-30T02:04:55;2.50;99.90
25188;DHT22;13141;50.414;8.050;2024-01-30T02:07:21;2.40;99.90
25188;DHT22;13141;50.414;8.050;2024-01-30T02:09:47;2.40;99.90
25188;DHT22;13141;50.414;8.050;2024-01-30T02:12:13;2.00;99.90
25188;DHT22;13141;50.414;8.050;2024-01-30T02:14:45;2.40;99.90
25188;DHT22;13141;50.414;8.050;2024-01-30T02:17:10;2.30;99.90
25188;DHT22;13141;50.414;8.050;2024-01-30T02:19:38;2.30;99.90
25188;DHT22;13141;50.414;8.050;2024-01-30T02:22:05;2.30;99.90
25188;DHT22;13141;50.414;8.050;2024-01-30T02:24:31;2.30;99.90
25188;DHT22;13141;50.414;8.050;2024-01-30T02:26:57;2.30;99.90
25188;DHT22;13141;50.414;8.050;2024-01-30T02:29:23;2.30;99.90
25188;DHT22;13141;50.414;8.050;2024-01-30T02:31:48;2.30;99.90
25188;DHT22;13141;50.414;8.050;2024-01-30T02:34:14;2.30;99.90
25188;DHT22;13141;50.414;8.050;2024-01-30T02:36:42;2.20;99.90
25188;DHT22;13141;50.414;8.050;2024-01-30T02:39:09;2.20;99.90
25188;DHT22;13141;50.414;8.050;2024-01-30T02:41:35;2.20;99.90
25188;DHT22;13141;50.414;8.050;2024-01-30T02:44:01;2.20;99.90
25188;DHT22;13141;50.414;8.050;2024-01-30T02:46:27;2.20;99.90
25188;DHT22;13141;50.414;8.050;2024-01-30T02:48:53;2.20;99.90
25188;DHT22;13141;50.414;8.050;2024-01-30T02:51:18;2.20;99.90
25188;DHT22;13141;50.414;8.050;2024-01-30T02:53:44;2.20;99.90
25188;DHT22;13141;50.414;8.050;2024-01-30T02:56:11;2.20;99.90
25188;DHT22;13141;50.414;8.050;2024-01-30T02:58:37;2.20;99.90
25188;DHT22;13141;50.414;8.050;2024-01-30T03:01:03;2.20;99.90
25188;DHT22;13141;50.414;8.050;2024-01-30T03:03:29;2.20;99.90
25188;DHT22;13141;50.414;8.050;2024-01-30T03:05:54;2.10;99.90
25188;DHT22;13141;50.414;8.050;2024-01-30T03:08:20;2.20;99.90
25188;DHT22;13141;50.414;8.050;2024-01-30T03:10:46;2.10;99.90
25188;DHT22;13141;50.414;8.050;2024-01-30T03:13:13;2.00;99.90
25188;DHT22;13141;50.414;8.050;2024-01-30T03:15:39;2.00;99.90
25188;DHT22;13141;50.414;8.050;2024-01-30T03:18:05;1.90;99.90
25188;DHT22;13141;50.414;8.050;2024-01-30T03:20:31;1.90;99.90
25188;DHT22;13141;50.414;8.050;2024-01-30T03:22:57;1.90;99.90
25188;DHT22;13141;50.414;8.050;2024-01-30T03:25:25;1.90;99.90
25188;DHT22;13141;50.414;8.050;2024-01-30T03:27:50;1.90;99.90
25188;DHT22;13141;50.414;8.050;2024-01-30T03:30:17;1.90;99.90
25188;DHT22;13141;50.414;8.050;2024-01-30T03:32:43;1.90;99.90
25188;DHT22;13141;50.414;8.050;2024-01-30T03:35:09;2.00;99.90
25188;DHT22;13141;50.414;8.050;2024-01-30T03:37:35;2.00;99.90
25188;DHT22;13141;50.414;8.050;2024-01-30T03:40:01;2.00;99.90
25188;DHT22;13141;50.414;8.050;2024-01-30T03:42:27;2.00;99.90
25188;DHT22;13141;50.414;8.050;2024-01-30T03:44:53;2.00;99.90
25188;DHT22;13141;50.414;8.050;2024-01-30T03:47:20;2.00;99.90
25188;DHT22;13141;50.414;8.050;2024-01-30T03:49:46;2.00;99.90
25188;DHT22;13141;50.414;8.050;2024-01-30T03:52:12;2.00;99.90
25188;DHT22;13141;50.414;8.050;2024-01-30T03:54:38;2.00;99.90
25188;DHT22;13141;50.414;8.050;2024-01-30T03:57:04;2.00;99.90
25188;DHT22;13141;50.414;8.050;2024-01-30T03:59:30;2.00;99.90
25188;DHT22;13141;50.414;8.050;2024-01-30T04:01:56;2.00;99.90
25188;DHT22;13141;50.414;8.050;2024-01-30T04:04:23;2.00;99.90
25188;DHT22;13141;50.414;8.050;2024-01-30T04:06:49;2.00;99.90
25188;DHT22;13141;50.414;8.050;2024-01-30T04:09:14;2.00;99.90
25188;DHT22;13141;50.414;8.050;2024-01-30T04:11:40;2.00;99.90
25188;DHT22;13141;50.414;8.050;2024-01-30T04:14:06;1.90;99.90
25188;DHT22;13141;50.414;8.050;2024-01-30T04:16:32;1.90;99.90
25188;DHT22;13141;50.414;8.050;2024-01-30T04:18:58;1.90;99.90
25188;DHT22;13141;50.414;8.050;2024-01-30T04:21:25;1.90;99.90
25188;DHT22;13141;50.414;8.050;2024-01-30T04:23:51;1.90;99.90
25188;DHT22;13141;50.414;8.050;2024-01-30T04:26:17;2.00;99.90
25188;DHT22;13141;50.414;8.050;2024-01-30T04:28:44;2.00;99.90
25188;DHT22;13141;50.414;8.050;2024-01-30T04:31:11;2.10;99.90
25188;DHT22;13141;50.414;8.050;2024-01-30T04:33:37;2.00;99.90
25188;DHT22;13141;50.414;8.050;2024-01-30T04:36:03;2.00;99.90
25188;DHT22;13141;50.414;8.050;2024-01-30T04:38:31;1.90;99.90
25188;DHT22;13141;50.414;8.050;2024-01-30T04:40:57;1.90;99.90
25188;DHT22;13141;50.414;8.050;2024-01-30T04:43:23;1.90;99.90
25188;DHT22;13141;50.414;8.050;2024-01-30T04:45:50;1.90;99.90
25188;DHT22;13141;50.414;8.050;2024-01-30T04:48:16;1.90;99.90
25188;DHT22;13141;50.414;8.050;2024-01-30T04:50:42;1.90;99.90
25188;DHT22;13141;50.414;8.050;2024-01-30T04:53:07;1.90;99.90
25188;DHT22;13141;50.414;8.050;2024-01-30T04:55:35;1.90;99.90
25188;DHT22;13141;50.414;8.050;2024-01-30T04:58:00;1.90;99.90
25188;DHT22;13141;50.414;8.050;2024-01-30T05:00:26;1.90;99.90
25188;DHT22;13141;50.414;8.050;2024-01-30T05:02:52;1.80;99.90
25188;DHT22;13141;50.414;8.050;2024-01-30T05:05:17;1.80;99.90
25188;DHT22;13141;50.414;8.050;2024-01-30T05:07:43;1.80;99.90
25188;DHT22;13141;50.414;8.050;2024-01-30T05:10:09;1.90;99.90
25188;DHT22;13141;50.414;8.050;2024-01-30T05:12:36;1.80;99.90
25188;DHT22;13141;50.414;8.050;2024-01-30T05:15:04;1.90;99.90
25188;DHT22;13141;50.414;8.050;2024-01-30T05:17:29;1.90;99.90
25188;DHT22;13141;50.414;8.050;2024-01-30T05:19:55;1.90;99.90
25188;DHT22;13141;50.414;8.050;2024-01-30T05:22:21;1.90;99.90
25188;DHT22;13141;50.414;8.050;2024-01-30T05:24:46;1.90;99.90
25188;DHT22;13141;50.414;8.050;2024-01-30T05:27:12;1.90;99.90
25188;DHT22;13141;50.414;8.050;2024-01-30T05:29:39;1.80;99.90
25188;DHT22;13141;50.414;8.050;2024-01-30T05:32:05;1.80;99.90
25188;DHT22;13141;50.414;8.050;2024-01-30T05:34:31;2.10;99.90
25188;DHT22;13141;50.414;8.050;2024-01-30T05:36:56;1.80;99.90
25188;DHT22;13141;50.414;8.050;2024-01-30T05:39:22;1.80;99.90
25188;DHT22;13141;50.414;8.050;2024-01-30T05:41:48;1.80;99.90
25188;DHT22;13141;50.414;8.050;2024-01-30T05:44:13;1.80;99.90
25188;DHT22;13141;50.414;8.050;2024-01-30T05:46:40;1.80;99.90
25188;DHT22;13141;50.414;8.050;2024-01-30T05:49:06;1.70;99.90
25188;DHT22;13141;50.414;8.050;2024-01-30T05:51:32;1.70;99.90
25188;DHT22;13141;50.414;8.050;2024-01-30T05:53:57;1.70;99.90
25188;DHT22;13141;50.414;8.050;2024-01-30T05:56:23;1.70;99.90
25188;DHT22;13141;50.414;8.050;2024-01-30T05:58:50;1.70;99.90
25188;DHT22;13141;50.414;8.050;2024-01-30T06:01:15;1.80;99.90
25188;DHT22;13141;50.414;8.050;2024-01-30T06:03:43;1.80;99.90
25188;DHT22;13141;50.414;8.050;2024-01-30T06:06:09;1.80;99.90
25188;DHT22;13141;50.414;8.050;2024-01-30T06:08:34;1.70;99.90
25188;DHT22;13141;50.414;8.050;2024-01-30T06:11:00;1.70;99.90
25188;DHT22;13141;50.414;8.050;2024-01-30T06:13:26;1.80;99.90
25188;DHT22;13141;50.414;8.050;2024-01-30T06:15:52;1.70;99.90
25188;DHT22;13141;50.414;8.050;2024-01-30T06:18:18;1.70;99.90
25188;DHT22;13141;50.414;8.050;2024-01-30T06:20:45;1.70;99.90
25188;DHT22;13141;50.414;8.050;2024-01-30T06:23:10;1.70;99.90
25188;DHT22;13141;50.414;8.050;2024-01-30T06:25:36;1.70;99.90
25188;DHT22;13141;50.414;8.050;2024-01-30T06:28:02;1.70;99.90
25188;DHT22;13141;50.414;8.050;2024-01-30T06:30:28;1.70;99.90
25188;DHT22;13141;50.414;8.050;2024-01-30T06:32:54;1.60;99.90
25188;DHT22;13141;50.414;8.050;2024-01-30T06:35:19;1.60;99.90
25188;DHT22;13141;50.414;8.050;2024-01-30T06:37:46;1.70;99.90
25188;DHT22;13141;50.414;8.050;2024-01-30T06:40:12;1.70;99.90
25188;DHT22;13141;50.414;8.050;2024-01-30T06:42:38;1.60;99.90
25188;DHT22;13141;50.414;8.050;2024-01-30T06:45:04;1.60;99.90
25188;DHT22;13141;50.414;8.050;2024-01-30T06:47:30;1.60;99.90
25188;DHT22;13141;50.414;8.050;2024-01-30T06:49:56;1.60;99.90
25188;DHT22;13141;50.414;8.050;2024-01-30T06:52:21;1.20;99.90
25188;DHT22;13141;50.414;8.050;2024-01-30T06:54:48;1.60;99.90
25188;DHT22;13141;50.414;8.050;2024-01-30T06:57:14;1.60;99.90
25188;DHT22;13141;50.414;8.050;2024-01-30T06:59:40;1.50;99.90
25188;DHT22;13141;50.414;8.050;2024-01-30T07:02:06;1.50;99.90
25188;DHT22;13141;50.414;8.050;2024-01-30T07:04:31;1.50;99.90
25188;DHT22;13141;50.414;8.050;2024-01-30T07:06:57;1.50;99.90
25188;DHT22;13141;50.414;8.050;2024-01-30T07:09:23;1.50;99.90
25188;DHT22;13141;50.414;8.050;2024-01-30T07:11:50;1.50;99.90
25188;DHT22;13141;50.414;8.050;2024-01-30T07:14:15;1.60;99.90
25188;DHT22;13141;50.414;8.050;2024-01-30T07:16:41;1.90;99.90
25188;DHT22;13141;50.414;8.050;2024-01-30T07:19:07;1.60;99.90
25188;DHT22;13141;50.414;8.050;2024-01-30T07:21:32;1.60;99.90
25188;DHT22;13141;50.414;8.050;2024-01-30T07:23:58;1.60;99.90
25188;DHT22;13141;50.414;8.050;2024-01-30T07:26:24;1.60;99.90
25188;DHT22;13141;50.414;8.050;2024-01-30T07:28:51;1.30;99.90
25188;DHT22;13141;50.414;8.050;2024-01-30T07:31:16;1.60;99.90
25188;DHT22;13141;50.414;8.050;2024-01-30T07:33:42;1.60;99.90
25188;DHT22;13141;50.414;8.050;2024-01-30T07:36:08;1.60;99.90
25188;DHT22;13141;50.414;8.050;2024-01-30T07:38:33;1.80;99.90
25188;DHT22;13141;50.414;8.050;2024-01-30T07:40:59;1.60;99.90
25188;DHT22;13141;50.414;8.050;2024-01-30T07:43:25;1.60;99.90
25188;DHT22;13141;50.414;8.050;2024-01-30T07:45:52;1.60;99.90
25188;DHT22;13141;50.414;8.050;2024-01-30T07:48:18;1.60;99.90
25188;DHT22;13141;50.414;8.050;2024-01-30T07:50:43;1.60;99.90
25188;DHT22;13141;50.414;8.050;2024-01-30T07:53:09;1.60;99.90
25188;DHT22;13141;50.414;8.050;2024-01-30T07:58:38;1.70;99.90
25188;DHT22;13141;50.414;8.050;2024-01-30T08:01:05;1.70;99.90
25188;DHT22;13141;50.414;8.050;2024-01-30T08:03:31;1.80;99.90
25188;DHT22;13141;50.414;8.050;2024-01-30T08:05:56;1.80;99.90
25188;DHT22;13141;50.414;8.050;2024-01-30T08:08:22;1.80;99.90
25188;DHT22;13141;50.414;8.050;2024-01-30T08:10:48;2.00;99.90
25188;DHT22;13141;50.414;8.050;2024-01-30T08:13:13;1.90;99.90
25188;DHT22;13141;50.414;8.050;2024-01-30T08:15:39;1.80;99.90
25188;DHT22;13141;50.414;8.050;2024-01-30T08:18:07;1.90;99.90
25188;DHT22;13141;50.414;8.050;2024-01-30T08:20:32;1.90;99.90
25188;DHT22;13141;50.414;8.050;2024-01-30T08:22:58;1.90;99.90
25188;DHT22;13141;50.414;8.050;2024-01-30T08:25:24;1.90;99.90
25188;DHT22;13141;50.414;8.050;2024-01-30T08:27:50;2.00;99.90
25188;DHT22;13141;50.414;8.050;2024-01-30T08:30:15;2.00;99.90
25188;DHT22;13141;50.414;8.050;2024-01-30T08:32:41;2.00;99.90
25188;DHT22;13141;50.414;8.050;2024-01-30T08:35:08;2.10;99.90
25188;DHT22;13141;50.414;8.050;2024-01-30T08:37:34;2.10;99.90
25188;DHT22;13141;50.414;8.050;2024-01-30T08:40:00;2.10;99.90
25188;DHT22;13141;50.414;8.050;2024-01-30T08:42:25;2.10;99.90
25188;DHT22;13141;50.414;8.050;2024-01-30T08:44:51;2.10;99.90
25188;DHT22;13141;50.414;8.050;2024-01-30T08:47:17;2.20;99.90
25188;DHT22;13141;50.414;8.050;2024-01-30T08:49:43;2.20;99.90
25188;DHT22;13141;50.414;8.050;2024-01-30T08:52:10;2.50;99.90
25188;DHT22;13141;50.414;8.050;2024-01-30T08:54:36;2.20;99.90
25188;DHT22;13141;50.414;8.050;2024-01-30T08:57:02;2.30;99.90
25188;DHT22;13141;50.414;8.050;2024-01-30T08:59:27;2.40;99.90
25188;DHT22;13141;50.414;8.050;2024-01-30T09:01:53;2.40;99.90
25188;DHT22;13141;50.414;8.050;2024-01-30T09:04:19;2.40;99.90
25188;DHT22;13141;50.414;8.050;2024-01-30T09:06:44;2.50;99.90
25188;DHT22;13141;50.414;8.050;2024-01-30T09:09:12;2.50;99.90
25188;DHT22;13141;50.414;8.050;2024-01-30T09:11:37;2.90;99.90
25188;DHT22;13141;50.414;8.050;2024-01-30T09:14:03;2.60;99.90
25188;DHT22;13141;50.414;8.050;2024-01-30T09:16:28;2.60;99.90
25188;DHT22;13141;50.414;8.050;2024-01-30T09:18:54;2.70;99.90
25188;DHT22;13141;50.414;8.050;2024-01-30T09:21:20;2.70;99.90
25188;DHT22;13141;50.414;8.050;2024-01-30T09:23:45;2.70;99.90
25188;DHT22;13141;50.414;8.050;2024-01-30T09:26:12;2.70;99.90
25188;DHT22;13141;50.414;8.050;2024-01-30T09:28:38;2.70;99.90
25188;DHT22;13141;50.414;8.050;2024-01-30T09:31:04;2.70;99.90
25188;DHT22;13141;50.414;8.050;2024-01-30T09:33:30;2.80;99.90
25188;DHT22;13141;50.414;8.050;2024-01-30T09:35:55;2.80;99.90
25188;DHT22;13141;50.414;8.050;2024-01-30T09:38:21;2.80;99.90
25188;DHT22;13141;50.414;8.050;2024-01-30T09:40:53;2.80;99.90
25188;DHT22;13141;50.414;8.050;2024-01-30T09:43:22;2.90;99.90
25188;DHT22;13141;50.414;8.050;2024-01-30T09:45:50;2.90;99.90
25188;DHT22;13141;50.414;8.050;2024-01-30T09:48:15;2.90;99.90
25188;DHT22;13141;50.414;8.050;2024-01-30T09:50:41;2.80;99.90
25188;DHT22;13141;50.414;8.050;2024-01-30T09:53:08;2.70;99.90
25188;DHT22;13141;50.414;8.050;2024-01-30T09:55:36;2.70;99.90
25188;DHT22;13141;50.414;8.050;2024-01-30T09:58:02;2.80;99.90
25188;DHT22;13141;50.414;8.050;2024-01-30T10:00:29;2.80;99.90
25188;DHT22;13141;50.414;8.050;2024-01-30T10:02:55;2.80;99.90
25188;DHT22;13141;50.414;8.050;2024-01-30T10:05:23;3.20;99.90
25188;DHT22;13141;50.414;8.050;2024-01-30T10:07:55;3.10;99.90
25188;DHT22;13141;50.414;8.050;2024-01-30T10:10:23;3.10;99.90
25188;DHT22;13141;50.414;8.050;2024-01-30T10:12:49;3.20;99.90
25188;DHT22;13141;50.414;8.050;2024-01-30T10:15:15;3.20;99.90
25188;DHT22;13141;50.414;8.050;2024-01-30T10:17:44;3.20;99.90
25188;DHT22;13141;50.414;8.050;2024-01-30T10:20:10;3.40;99.90
25188;DHT22;13141;50.414;8.050;2024-01-30T10:22:36;3.20;99.90
25188;DHT22;13141;50.414;8.050;2024-01-30T10:25:02;3.30;99.90
25188;DHT22;13141;50.414;8.050;2024-01-30T10:27:28;3.40;99.90
25188;DHT22;13141;50.414;8.050;2024-01-30T10:29:53;3.50;99.90
25188;DHT22;13141;50.414;8.050;2024-01-30T10:32:20;3.60;99.90
25188;DHT22;13141;50.414;8.050;2024-01-30T10:34:47;3.70;99.90
25188;DHT22;13141;50.414;8.050;2024-01-30T10:37:13;3.80;99.90
25188;DHT22;13141;50.414;8.050;2024-01-30T10:39:39;3.90;99.90
25188;DHT22;13141;50.414;8.050;2024-01-30T10:42:05;4.10;99.90
25188;DHT22;13141;50.414;8.050;2024-01-30T10:44:37;4.30;99.90
25188;DHT22;13141;50.414;8.050;2024-01-30T10:47:07;4.50;99.90
25188;DHT22;13141;50.414;8.050;2024-01-30T10:49:34;4.60;99.90
25188;DHT22;13141;50.414;8.050;2024-01-30T10:52:04;4.70;99.90
25188;DHT22;13141;50.414;8.050;2024-01-30T10:54:31;4.70;99.90
25188;DHT22;13141;50.414;8.050;2024-01-30T10:57:00;4.80;99.90
25188;DHT22;13141;50.414;8.050;2024-01-30T10:59:26;4.90;99.90
25188;DHT22;13141;50.414;8.050;2024-01-30T11:01:52;4.90;99.90
25188;DHT22;13141;50.414;8.050;2024-01-30T11:04:19;4.90;99.90
25188;DHT22;13141;50.414;8.050;2024-01-30T11:06:44;5.00;99.90
25188;DHT22;13141;50.414;8.050;2024-01-30T11:09:11;5.20;99.90
25188;DHT22;13141;50.414;8.050;2024-01-30T11:11:49;5.50;99.90
25188;DHT22;13141;50.414;8.050;2024-01-30T11:14:23;5.90;99.90
25188;DHT22;13141;50.414;8.050;2024-01-30T11:16:49;6.20;99.90
25188;DHT22;13141;50.414;8.050;2024-01-30T11:19:14;6.60;99.90
25188;DHT22;13141;50.414;8.050;2024-01-30T11:21:41;6.90;99.90
25188;DHT22;13141;50.414;8.050;2024-01-30T11:24:08;7.20;99.90
25188;DHT22;13141;50.414;8.050;2024-01-30T11:26:35;7.60;99.90
25188;DHT22;13141;50.414;8.050;2024-01-30T11:29:03;7.90;99.90
25188;DHT22;13141;50.414;8.050;2024-01-30T11:31:29;7.60;99.90
25188;DHT22;13141;50.414;8.050;2024-01-30T11:33:57;7.40;99.90
25188;DHT22;13141;50.414;8.050;2024-01-30T11:36:25;7.60;99.90
25188;DHT22;13141;50.414;8.050;2024-01-30T11:38:51;7.40;99.90
25188;DHT22;13141;50.414;8.050;2024-01-30T11:41:17;7.50;99.90
25188;DHT22;13141;50.414;8.050;2024-01-30T11:43:51;7.40;99.90
25188;DHT22;13141;50.414;8.050;2024-01-30T11:46:17;7.60;99.90
25188;DHT22;13141;50.414;8.050;2024-01-30T11:48:42;7.80;99.90
25188;DHT22;13141;50.414;8.050;2024-01-30T11:51:08;7.90;99.90
25188;DHT22;13141;50.414;8.050;2024-01-30T11:53:34;8.20;99.90
25188;DHT22;13141;50.414;8.050;2024-01-30T11:55:59;8.30;99.90
25188;DHT22;13141;50.414;8.050;2024-01-30T11:58:25;8.50;99.90
25188;DHT22;13141;50.414;8.050;2024-01-30T12:00:56;8.70;99.90
25188;DHT22;13141;50.414;8.050;2024-01-30T12:03:21;8.80;99.90
25188;DHT22;13141;50.414;8.050;2024-01-30T12:05:55;9.00;99.90
25188;DHT22;13141;50.414;8.050;2024-01-30T12:08:20;9.10;99.90
25188;DHT22;13141;50.414;8.050;2024-01-30T12:10:46;9.30;99.90
25188;DHT22;13141;50.414;8.050;2024-01-30T12:13:20;9.50;99.90
25188;DHT22;13141;50.414;8.050;2024-01-30T12:15:46;9.80;99.90
25188;DHT22;13141;50.414;8.050;2024-01-30T12:18:13;9.60;99.90
25188;DHT22;13141;50.414;8.050;2024-01-30T12:20:38;9.90;99.90
25188;DHT22;13141;50.414;8.050;2024-01-30T12:23:04;10.30;99.90
25188;DHT22;13141;50.414;8.050;2024-01-30T12:25:30;10.40;99.90
25188;DHT22;13141;50.414;8.050;2024-01-30T12:27:56;10.60;99.90
25188;DHT22;13141;50.414;8.050;2024-01-30T12:30:22;10.70;99.90
25188;DHT22;13141;50.414;8.050;2024-01-30T12:32:50;10.70;99.90
25188;DHT22;13141;50.414;8.050;2024-01-30T12:35:18;10.80;99.90
25188;DHT22;13141;50.414;8.050;2024-01-30T12:37:44;10.80;99.90
25188;DHT22;13141;50.414;8.050;2024-01-30T12:40:11;10.70;99.90
25188;DHT22;13141;50.414;8.050;2024-01-30T12:42:37;10.50;99.90
25188;DHT22;13141;50.414;8.050;2024-01-30T12:45:04;10.20;99.90
25188;DHT22;13141;50.414;8.050;2024-01-30T12:47:30;10.10;99.90
25188;DHT22;13141;50.414;8.050;2024-01-30T12:49:55;10.00;99.90
25188;DHT22;13141;50.414;8.050;2024-01-30T12:52:23;10.20;99.90
25188;DHT22;13141;50.414;8.050;2024-01-30T12:54:49;10.40;99.90
25188;DHT22;13141;50.414;8.050;2024-01-30T12:57:14;10.40;99.90
25188;DHT22;13141;50.414;8.050;2024-01-30T12:59:40;10.50;99.90
25188;DHT22;13141;50.414;8.050;2024-01-30T13:02:07;10.70;99.90
25188;DHT22;13141;50.414;8.050;2024-01-30T13:04:32;10.80;99.90
25188;DHT22;13141;50.414;8.050;2024-01-30T13:06:58;10.80;99.90
25188;DHT22;13141;50.414;8.050;2024-01-30T13:09:25;10.70;99.90
25188;DHT22;13141;50.414;8.050;2024-01-30T13:11:51;10.50;99.90
25188;DHT22;13141;50.414;8.050;2024-01-30T13:14:16;10.50;99.90
25188;DHT22;13141;50.414;8.050;2024-01-30T13:16:42;10.40;99.90
25188;DHT22;13141;50.414;8.050;2024-01-30T13:19:08;10.40;99.90
25188;DHT22;13141;50.414;8.050;2024-01-30T13:21:33;10.30;99.90
25188;DHT22;13141;50.414;8.050;2024-01-30T13:23:59;10.20;99.90
25188;DHT22;13141;50.414;8.050;2024-01-30T13:26:26;10.00;99.90
25188;DHT22;13141;50.414;8.050;2024-01-30T13:28:52;10.10;99.90
25188;DHT22;13141;50.414;8.050;2024-01-30T13:31:17;10.00;99.90
25188;DHT22;13141;50.414;8.050;2024-01-30T13:33:44;10.00;99.90
25188;DHT22;13141;50.414;8.050;2024-01-30T13:36:11;9.90;99.90
25188;DHT22;13141;50.414;8.050;2024-01-30T13:38:37;9.90;99.90
25188;DHT22;13141;50.414;8.050;2024-01-30T13:41:03;10.00;99.90
25188;DHT22;13141;50.414;8.050;2024-01-30T13:43:30;10.00;99.90
25188;DHT22;13141;50.414;8.050;2024-01-30T13:45:56;10.00;99.90
25188;DHT22;13141;50.414;8.050;2024-01-30T13:48:21;9.90;99.90
25188;DHT22;13141;50.414;8.050;2024-01-30T13:50:47;9.90;99.90
25188;DHT22;13141;50.414;8.050;2024-01-30T13:53:13;9.90;99.90
25188;DHT22;13141;50.414;8.050;2024-01-30T13:55:38;10.00;99.90
25188;DHT22;13141;50.414;8.050;2024-01-30T13:58:04;9.90;99.90
25188;DHT22;13141;50.414;8.050;2024-01-30T14:00:31;9.90;99.90
25188;DHT22;13141;50.414;8.050;2024-01-30T14:02:57;9.80;99.90
25188;DHT22;13141;50.414;8.050;2024-01-30T14:05:23;9.80;99.90
25188;DHT22;13141;50.414;8.050;2024-01-30T14:07:48;9.70;99.90
25188;DHT22;13141;50.414;8.050;2024-01-30T14:10:14;9.60;99.90
25188;DHT22;13141;50.414;8.050;2024-01-30T14:12:41;9.60;99.90
25188;DHT22;13141;50.414;8.050;2024-01-30T14:15:08;9.60;99.90
25188;DHT22;13141;50.414;8.050;2024-01-30T14:17:35;9.60;99.90
25188;DHT22;13141;50.414;8.050;2024-01-30T14:20:01;9.50;99.90
25188;DHT22;13141;50.414;8.050;2024-01-30T14:22:26;9.50;99.90
25188;DHT22;13141;50.414;8.050;2024-01-30T14:24:52;9.50;99.90
25188;DHT22;13141;50.414;8.050;2024-01-30T14:27:18;9.40;99.90
25188;DHT22;13141;50.414;8.050;2024-01-30T14:29:44;9.40;99.90
25188;DHT22;13141;50.414;8.050;2024-01-30T14:32:09;9.50;99.90
25188;DHT22;13141;50.414;8.050;2024-01-30T14:34:36;9.50;99.90
25188;DHT22;13141;50.414;8.050;2024-01-30T14:37:02;9.50;99.90
25188;DHT22;13141;50.414;8.050;2024-01-30T14:39:27;9.50;99.90
25188;DHT22;13141;50.414;8.050;2024-01-30T14:41:53;9.50;99.90
25188;DHT22;13141;50.414;8.050;2024-01-30T14:44:19;9.40;99.90
25188;DHT22;13141;50.414;8.050;2024-01-30T14:46:44;9.40;99.90
25188;DHT22;13141;50.414;8.050;2024-01-30T14:49:10;9.40;99.90
25188;DHT22;13141;50.414;8.050;2024-01-30T14:51:37;9.30;99.90
25188;DHT22;13141;50.414;8.050;2024-01-30T14:54:03;9.30;99.90
25188;DHT22;13141;50.414;8.050;2024-01-30T14:56:28;9.20;99.90
25188;DHT22;13141;50.414;8.050;2024-01-30T14:58:54;9.10;99.90
25188;DHT22;13141;50.414;8.050;2024-01-30T15:01:20;9.10;99.90
25188;DHT22;13141;50.414;8.050;2024-01-30T15:03:46;9.00;99.90
25188;DHT22;13141;50.414;8.050;2024-01-30T15:06:12;9.00;99.90
25188;DHT22;13141;50.414;8.050;2024-01-30T15:08:39;8.90;99.90
25188;DHT22;13141;50.414;8.050;2024-01-30T15:11:05;8.80;99.90
25188;DHT22;13141;50.414;8.050;2024-01-30T15:13:31;8.80;99.90
25188;DHT22;13141;50.414;8.050;2024-01-30T15:15:57;8.70;99.90
25188;DHT22;13141;50.414;8.050;2024-01-30T15:18:23;8.70;99.90
25188;DHT22;13141;50.414;8.050;2024-01-30T15:20:49;8.80;99.90
25188;DHT22;13141;50.414;8.050;2024-01-30T15:23:15;8.70;99.90
25188;DHT22;13141;50.414;8.050;2024-01-30T15:25:42;8.70;99.90
25188;DHT22;13141;50.414;8.050;2024-01-30T15:28:08;8.80;99.90
25188;DHT22;13141;50.414;8.050;2024-01-30T15:30:33;8.80;99.90
25188;DHT22;13141;50.414;8.050;2024-01-30T15:32:59;8.60;99.90
25188;DHT22;13141;50.414;8.050;2024-01-30T15:35:25;8.50;99.90
25188;DHT22;13141;50.414;8.050;2024-01-30T15:37:50;8.60;99.90
25188;DHT22;13141;50.414;8.050;2024-01-30T15:40:17;8.70;99.90